createdAt,value
2022-09-20T00:01:42.191Z,10.10
2022-09-20T00:06:20.121Z,10.10
2022-09-20T00:11:01.687Z,10.10
2022-09-20T00:15:07.323Z,10.10
2022-09-20T00:19:17.582Z,10.10
2022-09-20T00:23:21.255Z,10.10
2022-09-20T00:27:55.534Z,10.10
2022-09-20T00:32:00.345Z,10.10
2022-09-20T00:36:03.935Z,10.10
2022-09-20T00:40:10.154Z,10.10
2022-09-20T00:44:42.791Z,10.00
2022-09-20T00:49:17.095Z,9.90
2022-09-20T00:53:47.801Z,9.90
2022-09-20T00:57:51.512Z,9.90
2022-09-20T01:02:31.780Z,10.00
2022-09-20T01:07:05.184Z,10.00
2022-09-20T01:11:09.831Z,10.00
2022-09-20T01:15:14.544Z,10.10
2022-09-20T01:19:48.507Z,10.10
2022-09-20T01:24:02.120Z,10.20
2022-09-20T01:28:06.946Z,10.20
2022-09-20T01:32:14.119Z,10.20
2022-09-20T01:36:44.856Z,10.10
2022-09-20T01:41:24.865Z,10.10
2022-09-20T01:45:33.391Z,10.10
2022-09-20T01:49:46.060Z,10.10
2022-09-20T01:54:22.687Z,10.10
2022-09-20T01:59:22.163Z,10.00
2022-09-20T02:04:07.431Z,9.90
2022-09-20T02:09:05.129Z,9.90
2022-09-20T02:13:18.056Z,10.00
2022-09-20T02:17:50.343Z,10.00
2022-09-20T02:22:04.975Z,10.00
2022-09-20T02:26:48.573Z,10.00
2022-09-20T02:30:59.137Z,10.00
2022-09-20T02:35:16.363Z,10.10
2022-09-20T02:39:44.236Z,10.10
2022-09-20T02:43:55.829Z,10.00
2022-09-20T02:48:26.972Z,10.00
2022-09-20T02:52:37.836Z,9.90
2022-09-20T02:57:13.465Z,9.90
2022-09-20T03:01:32.395Z,10.00
2022-09-20T03:05:49.275Z,10.00
2022-09-20T03:10:20.450Z,9.90
2022-09-20T03:14:29.581Z,9.90
2022-09-20T03:19:05.386Z,10.00
2022-09-20T03:23:22.353Z,10.00
2022-09-20T03:27:52.027Z,10.10
2022-09-20T03:32:13.364Z,10.10
2022-09-20T03:36:41.241Z,10.00
2022-09-20T03:41:23.434Z,10.00
2022-09-20T03:46:04.406Z,10.00
2022-09-20T03:50:22.226Z,10.00
2022-09-20T03:54:54.250Z,9.90
2022-09-20T03:59:40.930Z,9.90
2022-09-20T04:04:09.131Z,9.90
2022-09-20T04:08:49.793Z,10.00
2022-09-20T04:13:32.299Z,10.00
2022-09-20T04:18:04.003Z,10.00
2022-09-20T04:22:09.586Z,10.00
2022-09-20T04:26:13.214Z,10.10
2022-09-20T04:30:47.743Z,10.10
2022-09-20T04:35:18.022Z,10.10
2022-09-20T04:39:42.492Z,10.10
2022-09-20T04:44:35.587Z,10.20
2022-09-20T04:49:27.479Z,10.20
2022-09-20T04:54:07.372Z,10.20
2022-09-20T04:59:05.209Z,10.20
2022-09-20T05:03:54.804Z,10.20
2022-09-20T05:08:39.300Z,10.20
2022-09-20T05:13:25.990Z,10.30
2022-09-20T05:18:12.827Z,10.20
2022-09-20T05:22:53.392Z,10.30
2022-09-20T05:27:29.310Z,10.30
2022-09-20T05:31:40.698Z,10.30
2022-09-20T05:36:15.350Z,10.40
2022-09-20T05:40:51.168Z,10.40
2022-09-20T05:45:24.284Z,10.50
2022-09-20T05:49:42.903Z,10.50
2022-09-20T05:54:25.503Z,10.50
2022-09-20T05:59:13.988Z,10.50
2022-09-20T06:03:55.899Z,10.60
2022-09-20T06:08:36.196Z,10.50
2022-09-20T06:12:53.019Z,10.50
2022-09-20T06:17:04.213Z,10.70
2022-09-20T06:21:41.321Z,10.90
2022-09-20T06:25:50.810Z,10.90
2022-09-20T06:30:24.282Z,10.90
2022-09-20T06:35:00.665Z,11.10
2022-09-20T06:40:08.691Z,11.10
2022-09-20T06:44:45.371Z,11.20
2022-09-20T06:49:22.600Z,11.40
2022-09-20T06:54:00.165Z,11.50
2022-09-20T06:58:37.011Z,11.70
2022-09-20T07:03:13.950Z,12.20
2022-09-20T07:07:57.579Z,12.50
2022-09-20T07:12:00.881Z,12.70
2022-09-20T07:16:05.008Z,12.50
2022-09-20T07:20:39.540Z,12.30
2022-09-20T07:24:45.075Z,12.30
2022-09-20T07:29:18.967Z,12.10
2022-09-20T07:33:56.125Z,12.00
2022-09-20T07:38:33.187Z,12.10
2022-09-20T07:43:11.538Z,12.20
2022-09-20T07:51:44.863Z,12.30
2022-09-20T07:56:23.747Z,12.50
2022-09-20T08:01:00.360Z,12.70
2022-09-20T08:05:35.877Z,12.80
2022-09-20T08:10:09.851Z,12.90
2022-09-20T08:14:46.851Z,12.80
2022-09-20T08:18:53.003Z,12.90
2022-09-20T08:23:27.162Z,13.30
2022-09-20T08:28:04.415Z,13.30
2022-09-20T17:29:00.321Z,11.70
2022-09-20T17:33:03.719Z,11.70
2022-09-20T17:37:13.321Z,11.60
2022-09-20T17:41:24.339Z,11.60
2022-09-20T17:45:28.875Z,11.50
2022-09-20T17:49:38.328Z,11.40
2022-09-20T17:53:48.340Z,11.30
2022-09-20T17:58:00.394Z,11.20
2022-09-20T18:02:04.945Z,11.10
2022-09-20T18:06:24.961Z,11.00
2022-09-20T18:10:35.336Z,10.80
2022-09-20T18:14:46.345Z,10.60
2022-09-20T18:18:51.824Z,10.50
2022-09-20T18:23:01.321Z,10.40
2022-09-20T18:27:11.324Z,10.20
2022-09-20T18:31:21.383Z,10.10
2022-09-20T18:35:34.321Z,10.00
2022-09-20T18:39:44.335Z,9.90
2022-09-20T18:43:54.685Z,9.90
2022-09-20T18:48:05.320Z,9.80
2022-09-20T18:52:12.329Z,9.80
2022-09-20T18:56:31.429Z,9.70
2022-09-20T19:00:41.394Z,9.60
2022-09-20T19:05:05.303Z,9.50
2022-09-20T19:09:16.225Z,9.40
2022-09-20T19:13:36.289Z,9.30
2022-09-20T19:18:00.304Z,9.10
2022-09-20T19:22:20.311Z,9.00
2022-09-20T19:26:32.303Z,8.80
2022-09-20T19:30:49.306Z,8.60
2022-09-20T19:34:55.895Z,8.40
2022-09-20T19:39:16.348Z,8.30
2022-09-20T19:43:38.186Z,8.20
2022-09-20T19:47:58.330Z,8.00
2022-09-20T19:52:11.357Z,7.90
2022-09-20T19:56:31.306Z,7.80
2022-09-20T20:00:43.294Z,7.70
2022-09-20T20:04:46.935Z,7.60
2022-09-20T20:09:02.305Z,7.60
2022-09-20T20:13:40.323Z,7.50
2022-09-20T20:18:02.324Z,7.40
2022-09-20T20:22:19.320Z,7.30
2022-09-20T20:26:24.229Z,7.20
2022-09-20T20:30:34.341Z,7.10
2022-09-20T20:34:52.337Z,7.10
2022-09-20T20:38:55.512Z,7.00
2022-09-20T20:43:08.332Z,7.00
2022-09-20T20:47:18.334Z,7.00
2022-09-20T20:51:30.299Z,6.90
2022-09-20T20:55:40.330Z,6.90
2022-09-20T20:59:50.310Z,6.90
2022-09-20T21:04:01.316Z,7.00
2022-09-20T21:08:05.925Z,7.00
2022-09-20T21:12:16.312Z,6.90
2022-09-20T21:16:21.705Z,6.80
2022-09-20T21:20:32.306Z,6.80
2022-09-20T21:24:43.306Z,6.70
2022-09-20T21:28:55.330Z,6.60
2022-09-20T21:33:12.344Z,6.50
2022-09-20T21:37:22.302Z,6.40
2022-09-20T21:41:36.308Z,6.30
2022-09-20T21:45:47.406Z,6.20
2022-09-20T21:49:57.376Z,6.10
2022-09-20T21:54:08.442Z,6.00
2022-09-20T21:58:20.410Z,6.00
2022-09-20T22:02:30.354Z,5.90
2022-09-20T22:06:42.440Z,5.80
2022-09-20T22:11:02.289Z,5.70
2022-09-20T22:15:14.309Z,5.60
2022-09-20T22:19:27.325Z,5.60
2022-09-20T22:23:30.871Z,5.60
2022-09-20T22:27:40.300Z,5.50
2022-09-20T22:32:00.336Z,5.50
2022-09-20T22:36:10.309Z,5.50
2022-09-20T22:40:20.369Z,5.50
2022-09-20T22:44:30.323Z,5.40
2022-09-20T22:48:42.309Z,5.30
2022-09-20T22:52:52.293Z,5.30
2022-09-20T22:57:02.356Z,5.30
2022-09-20T23:01:17.499Z,5.20
2022-09-20T23:05:29.328Z,5.20
2022-09-20T23:09:39.328Z,5.10
2022-09-20T23:13:49.338Z,5.10
2022-09-20T23:17:59.305Z,5.00
2022-09-20T23:22:10.317Z,5.00
2022-09-20T23:26:16.140Z,5.00
2022-09-20T23:30:26.351Z,5.00
2022-09-20T23:34:42.299Z,4.90
2022-09-20T23:38:47.754Z,4.90
2022-09-20T23:42:57.311Z,4.90
2022-09-20T23:47:07.306Z,4.80
2022-09-20T23:51:18.308Z,4.80
2022-09-20T23:55:29.323Z,4.70
2022-09-20T23:59:39.287Z,4.70
